Hayesville, NC

11:59 PM EDT on September 23, 2014 (GMT -0400)
Franklin | Change Station
CLOSE
Current Station
Airport
Location: Franklin,
Elevation: 2021 ft
Nearby Weather Stations

Elev 2021 ft 35.22 °N, 83.42 °W | Updated 24 minutes ago

Clear
Clear
55 °F
Feels Like 55 °F
N
0
Wind Variable Wind from North
Gusts 9 mph

Today
High -- | Low -- °F
--% Chance of Precip.
Yesterday
High -- | Low -- °F
Precip. -- in
7:23 AM 7:30 PM
Waning Crescent, 0% visible
Pressure 30.32 in
Visibility 10.0 miles
Clouds
Dew Point 54 °F
Humidity 99%
Rainfall 0.00 in
Snow Depth Not available.
UV Not available.
Pollen 5.80 out of 12
Air Quality Not available.
Flu Activity Not available.
METAR K1A5 240335Z AUTO 00000KT 10SM 13/12 A3032 RMK AO2 T01260124

More Conditions Fewer Conditions

Pressure 30.32 in
Visibility 10.0 miles
Clouds
Dew Point 54 °F
Humidity 99%
Rainfall 0.00 in
Snow Depth Not available.
UV Not available.
Pollen 5.80 out of 12
Air Quality Not available.
Flu Activity Not available.
METAR K1A5 240335Z AUTO 00000KT 10SM 13/12 A3032 RMK AO2 T01260124

More Conditions Fewer Conditions

10-Day Weather Forecast

Almanac

Astronomy

Sep. 23, 2014 Rise Set
Actual Time 7:23 AM EDT 7:30 PM EDT
Civil Twilight 6:58 AM EDT 7:55 PM EDT
Nautical Twilight 6:29 AM EDT 8:25 PM EDT
Astronomical Twilight 5:59 AM EDT 8:55 PM EDT
Moon 6:47 AM EDT (9/23) 7:09 PM EDT (9/23)
Length of Visible Light 12h 57m
Length of Day
12h 06m
Tomorrow will be 2m 11s shorter.
Waning Crescent, 0% of the Moon is Illuminated
Today
Waning Crescent
Sep 24
New
Oct 1
First Quarter
Oct 8
Full
Oct 15
Last Quarter

Today's Extremes

State Highs State Lows

Community

WunderPhotos

Upload Photos

1,755,878 photos uploaded!

WunderBlogs® & News

Nearby

Snow Depth

Station Depth Elevation
No new snow has been reported.

Earthquake Activity

City Distance Mag. Time & Date
No recent earthquake activity has been reported nearby.
Minimum magnitude displayed is 2.5.

Coastal Water Temperatures

Place Temperature
No Stations Reporting

Nearby Weather Stations